createdAt,value
2018-02-14T00:00:53.684Z,88.00
2018-02-14T00:03:22.800Z,87.80
2018-02-14T00:05:55.153Z,87.60
2018-02-14T00:08:23.204Z,87.60
2018-02-14T00:10:53.177Z,87.70
2018-02-14T00:13:22.197Z,87.60
2018-02-14T00:15:51.308Z,87.60
2018-02-14T00:18:23.844Z,87.90
2018-02-14T00:20:56.684Z,87.80
2018-02-14T00:23:25.688Z,87.80
2018-02-14T00:25:56.464Z,87.90
2018-02-14T00:28:24.501Z,87.90
2018-02-14T00:30:53.319Z,87.90
2018-02-14T00:33:21.336Z,87.80
2018-02-14T00:35:51.400Z,88.10
2018-02-14T00:38:19.436Z,88.10
2018-02-14T00:40:47.604Z,88.00
2018-02-14T00:43:17.516Z,88.00
2018-02-14T00:45:46.548Z,88.10
2018-02-14T00:48:14.584Z,87.90
2018-02-14T00:50:57.885Z,87.70
2018-02-14T00:53:26.816Z,87.60
2018-02-14T00:55:56.772Z,87.80
2018-02-14T00:58:28.041Z,87.80
2018-02-14T01:00:56.092Z,87.70
2018-02-14T01:03:32.116Z,87.70
2018-02-14T01:06:02.117Z,87.80
2018-02-14T01:08:30.924Z,88.00
2018-02-14T01:10:59.001Z,87.90
2018-02-14T01:13:27.080Z,88.10
2018-02-14T01:15:55.092Z,88.30
2018-02-14T01:18:26.668Z,88.20
2018-02-14T01:21:03.140Z,88.40
2018-02-14T01:23:32.052Z,88.40
2018-02-14T01:26:01.048Z,88.80
2018-02-14T01:28:34.678Z,88.20
2018-02-14T01:31:03.689Z,88.40
2018-02-14T01:33:35.104Z,88.60
2018-02-14T01:36:04.052Z,88.40
2018-02-14T01:38:36.428Z,88.20
2018-02-14T01:41:09.136Z,88.20
2018-02-14T01:43:42.684Z,88.30
2018-02-14T01:46:10.736Z,88.20
2018-02-14T01:48:41.908Z,88.00
2018-02-14T01:51:14.723Z,88.20
2018-02-14T01:53:44.984Z,88.10
2018-02-14T01:56:14.439Z,88.40
2018-02-14T01:58:42.472Z,88.80
2018-02-14T02:01:10.528Z,89.10
2018-02-14T02:03:39.612Z,89.90
2018-02-14T02:06:07.676Z,90.30
2018-02-14T02:08:35.708Z,90.40
2018-02-14T02:11:05.728Z,90.30
2018-02-14T02:13:39.872Z,90.40
2018-02-14T02:16:11.380Z,90.40
2018-02-14T02:18:46.701Z,90.60
2018-02-14T02:21:15.752Z,90.50
2018-02-14T02:23:44.856Z,90.40
2018-02-14T02:26:14.831Z,90.10
2018-02-14T02:28:42.959Z,90.00
2018-02-14T02:31:11.197Z,90.00
2018-02-14T02:33:39.251Z,90.10
2018-02-14T02:36:10.224Z,90.10
2018-02-14T02:38:46.628Z,89.80
2018-02-14T02:41:15.560Z,90.00
2018-02-14T02:43:44.540Z,88.80
2018-02-14T02:46:18.284Z,87.30
2018-02-14T02:48:46.359Z,87.10
2018-02-14T02:51:16.320Z,86.60
2018-02-14T02:53:49.299Z,86.30
2018-02-14T02:56:18.120Z,86.20
2018-02-14T02:58:46.134Z,86.10
2018-02-14T03:01:15.088Z,86.00
2018-02-14T03:03:45.092Z,85.90
2018-02-14T03:06:18.799Z,86.00
2018-02-14T03:09:00.224Z,86.00
2018-02-14T03:11:28.259Z,86.30
2018-02-14T03:13:57.321Z,87.00
2018-02-14T03:16:27.375Z,87.80
2018-02-14T03:19:00.424Z,89.30
2018-02-14T03:21:30.231Z,90.30
2018-02-14T03:23:59.099Z,90.60
2018-02-14T03:26:42.075Z,90.60
2018-02-14T03:29:10.114Z,91.20
2018-02-14T03:31:55.451Z,92.10
2018-02-14T03:34:24.415Z,92.10
2018-02-14T03:36:53.675Z,92.60
2018-02-14T03:39:23.487Z,93.20
2018-02-14T03:41:52.487Z,93.20
2018-02-14T03:44:22.315Z,93.60
2018-02-14T03:46:51.355Z,93.60
2018-02-14T03:49:26.831Z,93.90
2018-02-14T03:51:59.835Z,93.70
2018-02-14T03:54:35.295Z,93.70
2018-02-14T03:57:05.283Z,93.30
2018-02-14T03:59:35.135Z,92.90
2018-02-14T04:02:03.208Z,92.90
2018-02-14T04:04:32.178Z,93.00
2018-02-14T04:07:03.155Z,92.70
2018-02-14T04:09:32.187Z,92.00
2018-02-14T04:12:01.231Z,92.00
2018-02-14T04:14:29.279Z,92.30
2018-02-14T04:17:09.002Z,92.80
2018-02-14T04:19:37.027Z,93.20
2018-02-14T04:22:13.319Z,93.30
2018-02-14T04:24:43.347Z,93.50
2018-02-14T04:27:13.323Z,93.70
2018-02-14T04:29:44.804Z,94.10
2018-02-14T04:32:12.876Z,94.10
2018-02-14T04:34:41.683Z,95.40
2018-02-14T04:37:10.671Z,95.40
2018-02-14T04:39:40.687Z,94.50
2018-02-14T04:42:09.671Z,92.40
2018-02-14T04:44:37.775Z,90.50
2018-02-14T04:47:06.867Z,88.80
2018-02-14T04:49:34.935Z,88.60
2018-02-14T04:52:03.975Z,89.10
2018-02-14T04:54:37.994Z,88.50
2018-02-14T04:57:08.951Z,87.50
2018-02-14T04:59:37.950Z,87.10
2018-02-14T05:02:05.991Z,88.00
2018-02-14T05:04:34.007Z,88.30
2018-02-14T05:07:02.071Z,89.40
2018-02-14T05:09:30.159Z,89.70
2018-02-14T05:11:58.214Z,90.00
2018-02-14T05:14:26.243Z,90.10
2018-02-14T05:16:55.275Z,90.00
2018-02-14T05:19:27.995Z,89.80
2018-02-14T05:21:59.615Z,90.20
2018-02-14T05:24:27.678Z,90.40
2018-02-14T05:26:58.691Z,90.60
2018-02-14T05:29:27.478Z,90.90
2018-02-14T05:31:56.279Z,91.00
2018-02-14T05:34:26.234Z,91.00
2018-02-14T05:36:56.274Z,91.30
2018-02-14T05:39:27.723Z,91.00
2018-02-14T05:42:00.494Z,90.70
2018-02-14T05:44:31.843Z,90.70
2018-02-14T05:47:00.662Z,92.10
2018-02-14T05:49:32.774Z,92.10
2018-02-14T05:52:02.710Z,91.70
2018-02-14T05:54:32.746Z,91.50
2018-02-14T05:57:01.723Z,91.40
2018-02-14T05:59:33.683Z,91.40
2018-02-14T06:02:06.467Z,91.40
2018-02-14T06:04:40.075Z,91.50
2018-02-14T06:07:12.686Z,91.00
2018-02-14T06:09:41.643Z,90.70
2018-02-14T06:12:09.682Z,90.50
2018-02-14T06:14:49.595Z,90.40
2018-02-14T06:17:28.550Z,90.20
2018-02-14T06:20:00.786Z,90.10
2018-02-14T06:25:33.018Z,89.50
2018-02-14T06:28:07.699Z,90.10
2018-02-14T06:30:35.743Z,89.60
2018-02-14T06:33:04.722Z,90.10
2018-02-14T06:35:32.763Z,90.00
2018-02-14T06:38:00.814Z,89.80
2018-02-14T06:40:29.766Z,89.80
2018-02-14T06:43:08.363Z,90.50
2018-02-14T06:45:37.399Z,90.30
2018-02-14T06:48:09.351Z,90.70
2018-02-14T06:50:40.031Z,90.50
2018-02-14T06:53:09.990Z,90.50
2018-02-14T06:55:46.408Z,90.00
2018-02-14T06:58:18.422Z,90.00
2018-02-14T07:00:49.274Z,90.00
2018-02-14T07:03:24.586Z,90.00
2018-02-14T07:06:01.523Z,90.00
2018-02-14T07:08:34.859Z,90.20
2018-02-14T07:11:03.651Z,90.00
2018-02-14T07:13:32.454Z,89.40
2018-02-14T07:16:08.146Z,89.30
2018-02-14T07:18:37.150Z,89.20
2018-02-14T07:21:09.338Z,89.60
2018-02-14T07:23:41.078Z,89.90
2018-02-14T07:26:09.130Z,89.70
2018-02-14T07:28:50.966Z,89.90
2018-02-14T07:31:33.695Z,90.00
2018-02-14T07:34:08.090Z,90.30
2018-02-14T07:39:37.210Z,89.20
2018-02-14T07:42:09.422Z,88.50
2018-02-14T07:44:41.234Z,88.30
2018-02-14T07:47:09.274Z,88.50
2018-02-14T07:49:42.777Z,88.10
2018-02-14T07:52:10.822Z,87.10
2018-02-14T07:54:47.170Z,86.60
2018-02-14T07:57:21.558Z,86.60
2018-02-14T07:59:51.242Z,86.60
2018-02-14T08:02:31.942Z,86.60
2018-02-14T08:05:08.902Z,86.60
2018-02-14T08:07:38.861Z,86.60
2018-02-14T08:10:07.766Z,86.10
2018-02-14T08:12:39.658Z,85.20
2018-02-14T08:15:08.598Z,84.10
2018-02-14T08:17:37.530Z,85.30
2018-02-14T08:20:07.466Z,84.30
2018-02-14T08:22:35.502Z,84.60
2018-02-14T08:25:07.742Z,84.50
2018-02-14T08:27:36.653Z,85.00
2018-02-14T08:30:04.690Z,84.90
2018-02-14T08:32:39.378Z,83.70
2018-02-14T08:35:07.406Z,83.60
2018-02-14T08:37:43.845Z,84.00
2018-02-14T08:40:12.666Z,82.80
2018-02-14T08:43:06.198Z,82.70
2018-02-14T08:45:42.726Z,80.70
2018-02-14T08:48:13.990Z,80.60
2018-02-14T08:50:42.042Z,82.40
2018-02-14T08:53:10.965Z,80.60
2018-02-14T08:55:44.314Z,80.10
2018-02-14T08:58:16.384Z,80.10
2018-02-14T09:00:48.174Z,78.80
2018-02-14T09:03:16.194Z,78.50
2018-02-14T09:05:44.226Z,76.00
2018-02-14T09:08:14.934Z,73.30
2018-02-14T09:10:42.974Z,73.30
2018-02-14T09:13:20.761Z,73.90
2018-02-14T09:15:51.901Z,72.80
2018-02-14T09:21:18.701Z,71.60
2018-02-14T09:23:46.760Z,69.60
2018-02-14T09:26:16.689Z,69.40
2018-02-14T09:28:53.209Z,68.80
2018-02-14T09:31:33.597Z,67.80
2018-02-14T09:34:05.617Z,65.50
2018-02-14T09:36:33.649Z,64.70
2018-02-14T09:39:07.517Z,63.90
2018-02-14T09:41:35.533Z,63.30
2018-02-14T09:44:04.509Z,62.20
2018-02-14T09:46:51.261Z,60.70
2018-02-14T09:49:23.505Z,62.20
2018-02-14T09:51:52.485Z,62.00
2018-02-14T09:54:21.399Z,63.60
2018-02-14T09:56:51.309Z,61.40
2018-02-14T09:59:20.092Z,55.80
2018-02-14T10:01:50.010Z,55.80
2018-02-14T10:04:19.957Z,52.70
2018-02-14T10:06:48.893Z,48.90
2018-02-14T10:09:22.821Z,48.40
2018-02-14T10:12:02.840Z,41.00
2018-02-14T10:14:34.097Z,40.50
2018-02-14T10:17:06.036Z,37.90
2018-02-14T10:19:37.097Z,38.80
2018-02-14T10:22:07.024Z,37.70
2018-02-14T10:24:40.721Z,37.60
2018-02-14T10:27:10.645Z,36.90
2018-02-14T10:29:39.577Z,35.10
2018-02-14T10:32:07.597Z,34.10
2018-02-14T10:34:35.621Z,34.90
2018-02-14T10:37:03.649Z,32.50
2018-02-14T10:39:33.561Z,31.60
2018-02-14T10:42:03.485Z,31.70
2018-02-14T10:44:32.925Z,36.00
2018-02-14T10:47:07.213Z,36.00
2018-02-14T10:49:36.009Z,36.80
2018-02-14T10:52:07.117Z,36.60
2018-02-14T10:54:35.145Z,36.20
2018-02-14T10:57:06.484Z,34.50
2018-02-14T10:59:34.499Z,33.40
2018-02-14T11:02:08.189Z,33.00
2018-02-14T11:04:42.809Z,33.00
2018-02-14T11:07:16.645Z,31.40
2018-02-14T11:09:44.657Z,32.20
2018-02-14T11:12:12.668Z,30.20
2018-02-14T11:14:40.676Z,29.10
2018-02-14T11:17:12.476Z,28.10
2018-02-14T11:19:40.505Z,29.10
2018-02-14T11:22:10.480Z,28.80
2018-02-14T11:24:39.485Z,29.80
2018-02-14T11:27:07.517Z,29.00
2018-02-14T11:29:36.593Z,29.40
2018-02-14T11:32:06.513Z,29.30
2018-02-14T11:34:55.161Z,29.90
2018-02-14T11:37:25.137Z,30.60
2018-02-14T11:39:58.725Z,30.60
2018-02-14T11:42:30.392Z,31.10
2018-02-14T11:44:58.417Z,30.20
2018-02-14T11:47:43.384Z,31.40
2018-02-14T11:50:16.881Z,31.20
2018-02-14T11:52:44.934Z,30.70
2018-02-14T11:55:12.956Z,31.40
2018-02-14T11:57:41.948Z,29.00
2018-02-14T12:00:14.632Z,28.60
2018-02-14T12:02:43.548Z,27.10
2018-02-14T12:05:15.376Z,28.40
2018-02-14T12:07:43.404Z,28.80
2018-02-14T12:10:13.373Z,28.20
2018-02-14T12:12:46.856Z,29.50
2018-02-14T12:15:20.592Z,29.30
2018-02-14T12:17:51.293Z,29.80
2018-02-14T12:20:19.320Z,29.80
2018-02-14T12:22:51.448Z,31.00
2018-02-14T12:25:23.296Z,30.10
2018-02-14T12:27:59.700Z,29.70
2018-02-14T12:30:27.724Z,29.70
2018-02-14T12:33:03.477Z,30.00
2018-02-14T12:35:31.507Z,28.60
2018-02-14T12:38:02.804Z,27.10
2018-02-14T12:40:32.856Z,27.80
2018-02-14T12:43:00.888Z,28.50
2018-02-14T12:45:28.913Z,28.10
2018-02-14T12:48:01.834Z,29.30
2018-02-14T12:50:31.988Z,29.20
2018-02-14T12:53:03.204Z,29.00
2018-02-14T12:55:31.224Z,29.20
2018-02-14T12:57:59.268Z,29.40
2018-02-14T13:00:29.193Z,29.60
2018-02-14T13:02:57.232Z,30.00
2018-02-14T13:05:36.960Z,29.00
2018-02-14T13:08:05.011Z,28.90
2018-02-14T13:10:33.068Z,28.60
2018-02-14T13:13:01.101Z,29.10
2018-02-14T13:15:30.888Z,29.40
2018-02-14T13:17:58.926Z,29.20
2018-02-14T13:20:26.965Z,29.40
2018-02-14T13:23:03.676Z,30.10
2018-02-14T13:25:33.604Z,30.60
2018-02-14T13:28:06.392Z,29.50
2018-02-14T13:30:40.101Z,30.20
2018-02-14T13:33:16.552Z,30.50
2018-02-14T13:35:44.572Z,31.10
2018-02-14T13:38:22.712Z,30.60
2018-02-14T13:40:51.660Z,29.40
2018-02-14T13:43:24.627Z,29.30
2018-02-14T13:45:53.612Z,29.20
2018-02-14T13:48:28.728Z,30.30
2018-02-14T13:50:56.768Z,29.10
2018-02-14T13:53:28.700Z,29.30
2018-02-14T13:56:01.176Z,29.20
2018-02-14T13:58:31.420Z,29.10
2018-02-14T14:01:00.384Z,28.60
2018-02-14T14:03:31.108Z,28.70
2018-02-14T14:06:01.136Z,28.60
2018-02-14T14:08:29.936Z,31.50
2018-02-14T14:10:58.778Z,34.10
2018-02-14T14:13:26.752Z,34.00
2018-02-14T14:15:54.780Z,31.70
2018-02-14T14:18:24.740Z,32.40
2018-02-14T14:21:05.225Z,30.80
2018-02-14T14:23:34.145Z,30.70
2018-02-14T14:26:02.173Z,29.80
2018-02-14T14:28:31.196Z,30.30
2018-02-14T14:31:04.752Z,31.60
2018-02-14T14:33:45.745Z,31.60
2018-02-14T14:36:24.632Z,31.20
2018-02-14T14:38:53.668Z,30.80
2018-02-14T14:47:18.512Z,30.20
2018-02-14T14:49:56.112Z,30.00
2018-02-14T14:52:32.826Z,30.00
2018-02-14T14:55:00.856Z,30.00
2018-02-14T14:57:30.592Z,28.80
2018-02-14T15:00:02.500Z,28.70
2018-02-14T15:02:40.988Z,29.30
2018-02-14T15:05:32.184Z,29.30
2018-02-14T15:08:03.805Z,29.50
2018-02-14T15:10:35.636Z,30.60
2018-02-14T15:13:04.616Z,30.50
2018-02-14T15:15:33.724Z,30.90
2018-02-14T15:18:03.644Z,31.40
2018-02-14T15:20:48.332Z,31.60
2018-02-14T15:23:19.640Z,30.70
2018-02-14T15:26:05.760Z,29.90
2018-02-14T15:28:33.784Z,30.10
2018-02-14T15:31:05.861Z,31.00
2018-02-14T15:33:33.868Z,31.30
2018-02-14T15:36:06.708Z,33.20
2018-02-14T15:38:52.840Z,33.20
2018-02-14T15:41:22.634Z,34.30
2018-02-14T15:43:51.612Z,34.20
2018-02-14T15:46:23.578Z,35.60
2018-02-14T15:48:58.168Z,35.50
2018-02-14T15:51:33.004Z,34.90
2018-02-14T15:54:02.932Z,35.70
2018-02-14T15:59:28.368Z,39.40
2018-02-14T16:02:06.244Z,43.20
2018-02-14T16:04:36.184Z,46.20
2018-02-14T16:07:13.708Z,48.60
2018-02-14T16:09:42.488Z,48.80
2018-02-14T16:12:21.772Z,48.80
2018-02-14T16:14:49.784Z,48.70
2018-02-14T16:17:28.628Z,50.00
2018-02-14T16:19:58.304Z,52.00
2018-02-14T16:22:26.323Z,52.00
2018-02-14T16:24:55.260Z,52.40
2018-02-14T16:27:23.276Z,55.50
2018-02-14T16:29:51.296Z,59.20
2018-02-14T16:32:19.319Z,59.60
2018-02-14T16:34:49.248Z,59.10
2018-02-14T16:37:17.304Z,63.00
2018-02-14T16:39:46.244Z,66.60
2018-02-14T16:42:14.320Z,73.20
2018-02-14T16:44:43.248Z,71.90
2018-02-14T16:47:13.096Z,73.10
2018-02-14T16:49:58.801Z,76.90
2018-02-14T16:52:35.140Z,79.00
2018-02-14T16:55:04.175Z,81.70
2018-02-14T16:57:37.376Z,82.30
2018-02-14T17:00:17.084Z,82.80
2018-02-14T17:02:45.116Z,82.20
2018-02-14T17:05:16.975Z,80.10
2018-02-14T17:07:52.504Z,80.80
2018-02-14T17:10:22.248Z,81.90
2018-02-14T17:12:56.096Z,81.70
2018-02-14T17:15:30.840Z,83.70
2018-02-14T17:18:00.639Z,85.90
2018-02-14T17:20:52.828Z,85.70
2018-02-14T17:26:14.754Z,87.70
2018-02-14T17:28:46.267Z,90.10
2018-02-14T17:31:22.695Z,88.70
2018-02-14T17:33:53.912Z,89.10
2018-02-14T17:36:22.712Z,87.10
2018-02-14T17:38:50.752Z,87.10
2018-02-14T17:41:20.535Z,90.00
2018-02-14T17:43:49.540Z,90.00
2018-02-14T17:46:18.492Z,90.30
2018-02-14T17:48:46.524Z,90.90
2018-02-14T17:51:17.253Z,89.70
2018-02-14T17:53:46.264Z,89.60
2018-02-14T17:56:39.052Z,90.80
2018-02-14T17:59:11.767Z,90.00
2018-02-14T18:01:57.988Z,90.10
2018-02-14T18:04:45.228Z,90.00
2018-02-14T18:07:18.047Z,90.40
2018-02-14T18:09:58.611Z,90.80
2018-02-14T18:12:28.643Z,90.90
2018-02-14T18:15:02.747Z,91.00
2018-02-14T18:17:36.431Z,91.00
2018-02-14T18:20:23.847Z,92.10
2018-02-14T18:22:56.351Z,92.40
2018-02-14T18:25:24.403Z,92.10
2018-02-14T18:27:58.099Z,92.00
2018-02-14T18:30:27.111Z,91.70
2018-02-14T18:32:55.151Z,91.60
2018-02-14T18:35:28.703Z,91.70
2018-02-14T18:37:57.499Z,92.40
2018-02-14T18:40:25.543Z,92.40
2018-02-14T18:42:53.576Z,92.30
2018-02-14T18:45:24.439Z,92.80
2018-02-14T18:47:54.399Z,92.80
2018-02-14T18:50:22.451Z,93.00
2018-02-14T18:52:53.902Z,93.00
2018-02-14T18:55:26.543Z,93.00
2018-02-14T18:57:54.615Z,92.90
2018-02-14T19:00:23.535Z,93.30
2018-02-14T19:02:54.239Z,92.90
2018-02-14T19:05:28.307Z,92.80
2018-02-14T19:07:57.278Z,92.90
2018-02-14T19:10:29.023Z,93.20
2018-02-14T19:13:04.531Z,92.80
2018-02-14T19:15:35.183Z,92.80
2018-02-14T19:18:06.467Z,92.80
2018-02-14T19:20:36.267Z,92.00
2018-02-14T19:23:05.182Z,92.00
2018-02-14T19:25:33.475Z,91.90
2018-02-14T19:28:13.983Z,92.00
2018-02-14T19:30:45.018Z,92.00
2018-02-14T19:33:14.003Z,92.00
2018-02-14T19:35:44.028Z,92.50
2018-02-14T19:38:12.079Z,92.90
2018-02-14T19:40:41.131Z,93.00
2018-02-14T19:43:11.119Z,93.40
2018-02-14T19:45:51.479Z,93.40
2018-02-14T19:48:23.103Z,93.50
2018-02-14T19:50:54.371Z,93.50
2018-02-14T19:53:24.512Z,93.60
2018-02-14T19:55:55.076Z,93.70
2018-02-14T19:58:29.854Z,94.10
2018-02-14T20:01:04.467Z,94.30
2018-02-14T20:03:35.227Z,93.60
2018-02-14T20:06:04.063Z,91.80
2018-02-14T20:08:32.103Z,91.80
2018-02-14T20:11:08.615Z,90.50
2018-02-14T20:13:39.734Z,88.30
2018-02-14T20:16:08.746Z,86.60
2018-02-14T20:18:36.811Z,86.20
2018-02-14T20:21:04.911Z,86.80
2018-02-14T20:23:33.719Z,87.70
2018-02-14T20:26:01.811Z,87.50
2018-02-14T20:28:31.787Z,88.60
2018-02-14T20:31:04.466Z,90.20
2018-02-14T20:33:33.330Z,90.50
2018-02-14T20:36:01.429Z,90.50
2018-02-14T20:38:30.226Z,90.80
2018-02-14T20:40:59.370Z,90.80
2018-02-14T20:43:29.366Z,91.10
2018-02-14T20:46:04.702Z,91.60
2018-02-14T20:48:34.658Z,91.60
2018-02-14T20:51:04.770Z,92.30
2018-02-14T20:53:34.802Z,92.20
2018-02-14T20:56:04.927Z,92.20
2018-02-14T20:58:38.122Z,92.50
2018-02-14T21:01:08.259Z,92.50
2018-02-14T21:03:39.754Z,92.80
2018-02-14T21:06:07.846Z,93.10
2018-02-14T21:08:37.026Z,93.00
2018-02-14T21:11:05.143Z,93.10
2018-02-14T21:13:34.316Z,93.50
2018-02-14T21:16:03.356Z,93.40
2018-02-14T21:18:36.462Z,93.80
2018-02-14T21:21:04.530Z,94.00
2018-02-14T21:23:44.522Z,93.70
2018-02-14T21:26:12.594Z,93.90
2018-02-14T21:28:41.590Z,94.30
2018-02-14T21:31:12.323Z,94.20
2018-02-14T21:33:44.542Z,94.40
2018-02-14T21:36:23.290Z,94.40
2018-02-14T21:38:52.270Z,94.10
2018-02-14T21:41:21.014Z,94.40
2018-02-14T21:43:49.162Z,94.80
2018-02-14T21:46:17.998Z,94.80
2018-02-14T21:48:46.050Z,94.80
2018-02-14T21:51:16.070Z,94.60
2018-02-14T21:53:45.426Z,94.90
2018-02-14T21:56:15.378Z,95.30
2018-02-14T21:58:44.370Z,95.50
2018-02-14T22:01:18.310Z,95.00
2018-02-14T22:03:54.706Z,93.60
2018-02-14T22:06:22.758Z,93.30
2018-02-14T22:08:51.970Z,92.20
2018-02-14T22:11:23.302Z,91.70
2018-02-14T22:13:52.570Z,91.40
2018-02-14T22:16:20.650Z,91.70
2018-02-14T22:18:49.737Z,91.90
2018-02-14T22:21:17.794Z,91.70
2018-02-14T22:23:46.782Z,91.70
2018-02-14T22:26:14.862Z,91.70
2018-02-14T22:28:44.874Z,91.80
2018-02-14T22:31:16.518Z,92.10
2018-02-14T22:33:44.566Z,92.50
2018-02-14T22:36:15.362Z,93.50
2018-02-14T22:38:44.610Z,93.30
2018-02-14T22:41:13.642Z,93.90
2018-02-14T22:43:43.610Z,93.80
2018-02-14T22:46:13.648Z,94.00
2018-02-14T22:48:44.865Z,94.00
2018-02-14T22:51:17.515Z,94.10
2018-02-14T22:53:45.590Z,94.40
2018-02-14T22:56:18.850Z,94.50
2018-02-14T22:58:50.629Z,94.80
2018-02-14T23:01:24.536Z,94.90
2018-02-14T23:03:54.545Z,94.70
2018-02-14T23:06:29.046Z,94.60
2018-02-14T23:08:57.170Z,94.90
2018-02-14T23:11:25.217Z,94.90
2018-02-14T23:13:53.258Z,95.00
2018-02-14T23:16:23.169Z,95.00
2018-02-14T23:18:51.232Z,95.10
2018-02-14T23:21:19.241Z,95.30
2018-02-14T23:23:47.296Z,95.30
2018-02-14T23:26:15.353Z,95.20
2018-02-14T23:28:44.334Z,95.20
2018-02-14T23:31:14.141Z,95.10
2018-02-14T23:33:44.153Z,95.10
2018-02-14T23:36:20.358Z,95.10
2018-02-14T23:38:48.421Z,95.10
2018-02-14T23:41:17.458Z,95.10
2018-02-14T23:43:46.388Z,95.10
2018-02-14T23:46:24.425Z,95.20
2018-02-14T23:48:52.457Z,95.10
2018-02-14T23:51:24.109Z,95.20
2018-02-14T23:53:52.141Z,95.20
2018-02-14T23:56:20.197Z,95.60
2018-02-14T23:58:48.273Z,96.60
